Terminal Aerodrome Forecast
Issued by NWS

Home | Current Version | Previous Version | Text Only | Print | Product List | Glossary On
Versions: 1 2 3 4 5 6 7 8 9 10 11 12 13 14 15 16 17 18 19 20 21 22 23 24 25 26
000
FTUS41 KBGM 240500
TAFELM
TAF
KELM 240535Z 2406/2506 31006KT P6SM SCT018 OVC025
      TEMPO 2406/2408 OVC018
     FM240800 30006KT P6SM SCT025 BKN040
      TEMPO 2408/2412 BKN025
     FM241400 32010KT P6SM SCT100
     FM242200 31005KT P6SM SKC=

USA.gov is the U.S. government's official web portal to all federal, state and local government web resources and services.